sensor_id;sensor_type;location;lat;lon;timestamp;P1;durP1;ratioP1;P2;durP2;ratioP2
2522;SDS011;1272;53.332;9.860;2023-09-19T00:01:41;2.30;;;2.10;;
2522;SDS011;1272;53.332;9.860;2023-09-19T00:04:10;2.10;;;2.00;;
2522;SDS011;1272;53.332;9.860;2023-09-19T00:06:37;2.20;;;2.10;;
2522;SDS011;1272;53.332;9.860;2023-09-19T00:09:06;4.90;;;2.10;;
2522;SDS011;1272;53.332;9.860;2023-09-19T00:11:36;4.20;;;1.93;;
2522;SDS011;1272;53.332;9.860;2023-09-19T00:14:02;2.10;;;1.80;;
2522;SDS011;1272;53.332;9.860;2023-09-19T00:16:29;2.10;;;2.00;;
2522;SDS011;1272;53.332;9.860;2023-09-19T00:18:57;5.43;;;2.30;;
2522;SDS011;1272;53.332;9.860;2023-09-19T00:21:23;3.17;;;2.03;;
2522;SDS011;1272;53.332;9.860;2023-09-19T00:23:49;2.13;;;2.03;;
2522;SDS011;1272;53.332;9.860;2023-09-19T00:26:16;2.17;;;2.07;;
2522;SDS011;1272;53.332;9.860;2023-09-19T00:28:43;2.53;;;2.33;;
2522;SDS011;1272;53.332;9.860;2023-09-19T00:31:09;2.20;;;1.97;;
2522;SDS011;1272;53.332;9.860;2023-09-19T00:33:34;3.13;;;2.27;;
2522;SDS011;1272;53.332;9.860;2023-09-19T00:36:01;3.00;;;1.97;;
2522;SDS011;1272;53.332;9.860;2023-09-19T00:38:30;3.13;;;2.17;;
2522;SDS011;1272;53.332;9.860;2023-09-19T00:40:57;2.10;;;1.97;;
2522;SDS011;1272;53.332;9.860;2023-09-19T00:43:24;2.83;;;2.60;;
2522;SDS011;1272;53.332;9.860;2023-09-19T00:45:52;3.17;;;2.97;;
2522;SDS011;1272;53.332;9.860;2023-09-19T00:48:19;3.67;;;2.40;;
2522;SDS011;1272;53.332;9.860;2023-09-19T00:50:46;3.03;;;2.53;;
2522;SDS011;1272;53.332;9.860;2023-09-19T00:53:14;2.40;;;2.20;;
2522;SDS011;1272;53.332;9.860;2023-09-19T00:55:43;3.00;;;2.80;;
2522;SDS011;1272;53.332;9.860;2023-09-19T00:58:10;5.20;;;2.73;;
2522;SDS011;1272;53.332;9.860;2023-09-19T01:00:36;3.23;;;2.87;;
2522;SDS011;1272;53.332;9.860;2023-09-19T01:03:02;5.80;;;3.03;;
2522;SDS011;1272;53.332;9.860;2023-09-19T01:05:28;4.07;;;2.77;;
2522;SDS011;1272;53.332;9.860;2023-09-19T01:07:56;3.63;;;2.87;;
2522;SDS011;1272;53.332;9.860;2023-09-19T01:10:22;2.80;;;2.70;;
2522;SDS011;1272;53.332;9.860;2023-09-19T01:13:07;3.70;;;2.97;;
2522;SDS011;1272;53.332;9.860;2023-09-19T01:16:03;3.17;;;2.97;;
2522;SDS011;1272;53.332;9.860;2023-09-19T01:18:55;3.73;;;3.40;;
2522;SDS011;1272;53.332;9.860;2023-09-19T01:29:33;4.87;;;3.50;;
2522;SDS011;1272;53.332;9.860;2023-09-19T01:32:04;3.03;;;2.73;;
2522;SDS011;1272;53.332;9.860;2023-09-19T01:37:16;3.30;;;2.80;;
2522;SDS011;1272;53.332;9.860;2023-09-19T01:39:57;3.20;;;2.90;;
2522;SDS011;1272;53.332;9.860;2023-09-19T01:51:05;3.00;;;2.63;;
2522;SDS011;1272;53.332;9.860;2023-09-19T01:53:36;3.67;;;3.37;;
2522;SDS011;1272;53.332;9.860;2023-09-19T01:56:08;4.30;;;3.90;;
2522;SDS011;1272;53.332;9.860;2023-09-19T01:58:48;2.73;;;2.53;;
2522;SDS011;1272;53.332;9.860;2023-09-19T02:01:16;4.60;;;3.10;;
2522;SDS011;1272;53.332;9.860;2023-09-19T02:03:47;3.47;;;3.17;;
2522;SDS011;1272;53.332;9.860;2023-09-19T02:06:15;3.77;;;3.43;;
2522;SDS011;1272;53.332;9.860;2023-09-19T02:08:42;4.00;;;3.70;;
2522;SDS011;1272;53.332;9.860;2023-09-19T02:11:10;4.00;;;3.60;;
2522;SDS011;1272;53.332;9.860;2023-09-19T02:13:39;3.43;;;2.90;;
2522;SDS011;1272;53.332;9.860;2023-09-19T02:16:05;4.07;;;3.27;;
2522;SDS011;1272;53.332;9.860;2023-09-19T02:18:32;6.17;;;4.17;;
2522;SDS011;1272;53.332;9.860;2023-09-19T02:21:00;3.17;;;2.87;;
2522;SDS011;1272;53.332;9.860;2023-09-19T02:23:26;8.70;;;3.07;;
2522;SDS011;1272;53.332;9.860;2023-09-19T02:25:55;3.63;;;3.33;;
2522;SDS011;1272;53.332;9.860;2023-09-19T02:28:25;3.57;;;2.77;;
2522;SDS011;1272;53.332;9.860;2023-09-19T02:30:55;9.03;;;3.10;;
2522;SDS011;1272;53.332;9.860;2023-09-19T02:33:21;5.10;;;2.80;;
2522;SDS011;1272;53.332;9.860;2023-09-19T02:35:47;5.67;;;2.83;;
2522;SDS011;1272;53.332;9.860;2023-09-19T02:38:13;4.10;;;2.90;;
2522;SDS011;1272;53.332;9.860;2023-09-19T02:40:43;7.00;;;3.33;;
2522;SDS011;1272;53.332;9.860;2023-09-19T02:43:09;5.87;;;2.47;;
2522;SDS011;1272;53.332;9.860;2023-09-19T02:45:35;2.77;;;2.67;;
2522;SDS011;1272;53.332;9.860;2023-09-19T02:48:00;5.30;;;3.00;;
2522;SDS011;1272;53.332;9.860;2023-09-19T02:50:27;3.43;;;2.77;;
2522;SDS011;1272;53.332;9.860;2023-09-19T02:52:53;3.30;;;2.80;;
2522;SDS011;1272;53.332;9.860;2023-09-19T02:55:19;2.33;;;2.13;;
2522;SDS011;1272;53.332;9.860;2023-09-19T02:57:50;5.33;;;2.30;;
2522;SDS011;1272;53.332;9.860;2023-09-19T03:00:17;4.13;;;2.70;;
2522;SDS011;1272;53.332;9.860;2023-09-19T03:02:56;2.50;;;2.10;;
2522;SDS011;1272;53.332;9.860;2023-09-19T03:05:22;2.17;;;1.97;;
2522;SDS011;1272;53.332;9.860;2023-09-19T03:07:49;2.90;;;2.10;;
2522;SDS011;1272;53.332;9.860;2023-09-19T03:10:18;2.60;;;2.40;;
2522;SDS011;1272;53.332;9.860;2023-09-19T03:12:44;2.63;;;1.90;;
2522;SDS011;1272;53.332;9.860;2023-09-19T03:15:10;1.93;;;1.80;;
2522;SDS011;1272;53.332;9.860;2023-09-19T03:17:36;2.13;;;1.57;;
2522;SDS011;1272;53.332;9.860;2023-09-19T03:20:02;1.90;;;1.73;;
2522;SDS011;1272;53.332;9.860;2023-09-19T03:22:29;1.83;;;1.73;;
2522;SDS011;1272;53.332;9.860;2023-09-19T03:24:55;3.70;;;2.03;;
2522;SDS011;1272;53.332;9.860;2023-09-19T03:27:20;2.80;;;1.50;;
2522;SDS011;1272;53.332;9.860;2023-09-19T03:29:46;1.60;;;1.50;;
2522;SDS011;1272;53.332;9.860;2023-09-19T03:32:12;2.87;;;1.30;;
2522;SDS011;1272;53.332;9.860;2023-09-19T03:34:38;5.33;;;1.90;;
2522;SDS011;1272;53.332;9.860;2023-09-19T03:37:08;1.90;;;1.10;;
2522;SDS011;1272;53.332;9.860;2023-09-19T03:39:35;4.33;;;1.50;;
2522;SDS011;1272;53.332;9.860;2023-09-19T03:42:01;1.53;;;1.40;;
2522;SDS011;1272;53.332;9.860;2023-09-19T03:44:29;1.53;;;1.43;;
2522;SDS011;1272;53.332;9.860;2023-09-19T03:46:55;3.90;;;1.23;;
2522;SDS011;1272;53.332;9.860;2023-09-19T03:49:22;2.73;;;1.90;;
2522;SDS011;1272;53.332;9.860;2023-09-19T03:51:47;1.77;;;1.33;;
2522;SDS011;1272;53.332;9.860;2023-09-19T03:54:13;1.50;;;1.40;;
2522;SDS011;1272;53.332;9.860;2023-09-19T03:56:39;2.20;;;1.23;;
2522;SDS011;1272;53.332;9.860;2023-09-19T03:59:04;1.30;;;1.20;;
2522;SDS011;1272;53.332;9.860;2023-09-19T04:01:30;1.70;;;1.17;;
2522;SDS011;1272;53.332;9.860;2023-09-19T04:03:58;2.10;;;1.60;;
2522;SDS011;1272;53.332;9.860;2023-09-19T04:06:32;1.50;;;1.40;;
2522;SDS011;1272;53.332;9.860;2023-09-19T04:09:02;2.97;;;1.30;;
2522;SDS011;1272;53.332;9.860;2023-09-19T04:11:28;1.60;;;1.50;;
2522;SDS011;1272;53.332;9.860;2023-09-19T04:13:55;3.97;;;1.53;;
2522;SDS011;1272;53.332;9.860;2023-09-19T04:16:21;1.90;;;1.30;;
2522;SDS011;1272;53.332;9.860;2023-09-19T04:18:47;3.37;;;1.23;;
2522;SDS011;1272;53.332;9.860;2023-09-19T04:21:13;2.40;;;1.77;;
2522;SDS011;1272;53.332;9.860;2023-09-19T04:23:39;1.20;;;1.10;;
2522;SDS011;1272;53.332;9.860;2023-09-19T04:26:05;3.40;;;1.30;;
2522;SDS011;1272;53.332;9.860;2023-09-19T04:28:31;2.70;;;1.30;;
2522;SDS011;1272;53.332;9.860;2023-09-19T04:30:59;3.40;;;1.40;;
2522;SDS011;1272;53.332;9.860;2023-09-19T04:33:25;2.10;;;1.40;;
2522;SDS011;1272;53.332;9.860;2023-09-19T04:35:55;1.70;;;1.27;;
2522;SDS011;1272;53.332;9.860;2023-09-19T04:38:21;2.73;;;1.63;;
2522;SDS011;1272;53.332;9.860;2023-09-19T04:40:47;1.63;;;1.03;;
2522;SDS011;1272;53.332;9.860;2023-09-19T04:43:13;3.03;;;1.70;;
2522;SDS011;1272;53.332;9.860;2023-09-19T04:45:39;2.03;;;1.30;;
2522;SDS011;1272;53.332;9.860;2023-09-19T04:48:07;2.77;;;1.60;;
2522;SDS011;1272;53.332;9.860;2023-09-19T04:50:33;2.80;;;1.70;;
2522;SDS011;1272;53.332;9.860;2023-09-19T04:52:59;4.87;;;1.53;;
2522;SDS011;1272;53.332;9.860;2023-09-19T04:55:26;1.30;;;1.20;;
2522;SDS011;1272;53.332;9.860;2023-09-19T04:57:52;3.40;;;1.70;;
2522;SDS011;1272;53.332;9.860;2023-09-19T05:00:21;1.80;;;1.27;;
2522;SDS011;1272;53.332;9.860;2023-09-19T05:02:54;2.70;;;1.60;;
2522;SDS011;1272;53.332;9.860;2023-09-19T05:05:24;3.40;;;1.80;;
2522;SDS011;1272;53.332;9.860;2023-09-19T05:07:50;3.17;;;1.23;;
2522;SDS011;1272;53.332;9.860;2023-09-19T05:10:18;3.00;;;1.60;;
2522;SDS011;1272;53.332;9.860;2023-09-19T05:12:44;7.10;;;1.87;;
2522;SDS011;1272;53.332;9.860;2023-09-19T05:15:12;2.57;;;1.47;;
2522;SDS011;1272;53.332;9.860;2023-09-19T05:17:51;3.50;;;1.57;;
2522;SDS011;1272;53.332;9.860;2023-09-19T05:20:19;6.17;;;1.50;;
2522;SDS011;1272;53.332;9.860;2023-09-19T05:22:58;2.70;;;1.33;;
2522;SDS011;1272;53.332;9.860;2023-09-19T05:25:32;1.70;;;1.60;;
2522;SDS011;1272;53.332;9.860;2023-09-19T05:28:02;2.13;;;1.23;;
2522;SDS011;1272;53.332;9.860;2023-09-19T05:30:31;3.53;;;1.57;;
2522;SDS011;1272;53.332;9.860;2023-09-19T05:32:57;3.27;;;1.50;;
2522;SDS011;1272;53.332;9.860;2023-09-19T05:35:23;3.70;;;1.60;;
2522;SDS011;1272;53.332;9.860;2023-09-19T05:37:50;1.67;;;1.27;;
2522;SDS011;1272;53.332;9.860;2023-09-19T05:40:19;1.97;;;1.77;;
2522;SDS011;1272;53.332;9.860;2023-09-19T05:42:45;1.70;;;1.57;;
2522;SDS011;1272;53.332;9.860;2023-09-19T05:45:12;3.50;;;2.00;;
2522;SDS011;1272;53.332;9.860;2023-09-19T05:47:41;2.80;;;1.60;;
2522;SDS011;1272;53.332;9.860;2023-09-19T05:50:11;6.13;;;1.80;;
2522;SDS011;1272;53.332;9.860;2023-09-19T05:52:38;2.30;;;1.37;;
2522;SDS011;1272;53.332;9.860;2023-09-19T05:55:04;3.27;;;1.73;;
2522;SDS011;1272;53.332;9.860;2023-09-19T05:57:32;5.63;;;2.30;;
2522;SDS011;1272;53.332;9.860;2023-09-19T05:59:58;4.50;;;2.13;;
2522;SDS011;1272;53.332;9.860;2023-09-19T06:02:23;3.90;;;1.90;;
2522;SDS011;1272;53.332;9.860;2023-09-19T06:04:52;8.80;;;2.40;;
2522;SDS011;1272;53.332;9.860;2023-09-19T06:07:18;11.60;;;2.00;;
2522;SDS011;1272;53.332;9.860;2023-09-19T06:09:43;4.23;;;2.10;;
2522;SDS011;1272;53.332;9.860;2023-09-19T06:12:09;6.23;;;1.87;;
2522;SDS011;1272;53.332;9.860;2023-09-19T06:14:37;3.27;;;1.70;;
2522;SDS011;1272;53.332;9.860;2023-09-19T06:17:05;4.47;;;1.97;;
2522;SDS011;1272;53.332;9.860;2023-09-19T06:19:31;8.70;;;2.90;;
2522;SDS011;1272;53.332;9.860;2023-09-19T06:21:57;3.30;;;2.00;;
2522;SDS011;1272;53.332;9.860;2023-09-19T06:24:24;4.40;;;1.90;;
2522;SDS011;1272;53.332;9.860;2023-09-19T06:26:50;5.30;;;2.40;;
2522;SDS011;1272;53.332;9.860;2023-09-19T06:29:17;5.50;;;2.63;;
2522;SDS011;1272;53.332;9.860;2023-09-19T06:31:45;4.17;;;2.47;;
2522;SDS011;1272;53.332;9.860;2023-09-19T06:34:12;8.30;;;1.97;;
2522;SDS011;1272;53.332;9.860;2023-09-19T06:36:40;4.77;;;2.17;;
2522;SDS011;1272;53.332;9.860;2023-09-19T06:39:06;2.47;;;1.50;;
2522;SDS011;1272;53.332;9.860;2023-09-19T06:41:36;4.57;;;2.87;;
2522;SDS011;1272;53.332;9.860;2023-09-19T06:44:03;2.70;;;2.10;;
2522;SDS011;1272;53.332;9.860;2023-09-19T06:46:30;6.90;;;3.00;;
2522;SDS011;1272;53.332;9.860;2023-09-19T06:48:59;3.30;;;2.67;;
2522;SDS011;1272;53.332;9.860;2023-09-19T06:51:28;2.20;;;2.00;;
2522;SDS011;1272;53.332;9.860;2023-09-19T06:53:54;4.77;;;2.50;;
2522;SDS011;1272;53.332;9.860;2023-09-19T06:56:22;4.93;;;2.70;;
2522;SDS011;1272;53.332;9.860;2023-09-19T06:58:49;3.70;;;2.20;;
2522;SDS011;1272;53.332;9.860;2023-09-19T07:01:15;7.17;;;2.23;;
2522;SDS011;1272;53.332;9.860;2023-09-19T07:03:41;2.77;;;2.10;;
2522;SDS011;1272;53.332;9.860;2023-09-19T07:06:10;4.50;;;2.17;;
2522;SDS011;1272;53.332;9.860;2023-09-19T07:08:36;5.67;;;2.50;;
2522;SDS011;1272;53.332;9.860;2023-09-19T07:11:03;5.13;;;2.20;;
2522;SDS011;1272;53.332;9.860;2023-09-19T07:13:31;3.27;;;2.60;;
2522;SDS011;1272;53.332;9.860;2023-09-19T07:15:58;4.40;;;2.10;;
2522;SDS011;1272;53.332;9.860;2023-09-19T07:18:24;8.10;;;2.67;;
2522;SDS011;1272;53.332;9.860;2023-09-19T07:20:50;8.87;;;2.40;;
2522;SDS011;1272;53.332;9.860;2023-09-19T07:23:20;3.27;;;2.47;;
2522;SDS011;1272;53.332;9.860;2023-09-19T07:25:51;5.23;;;2.40;;
2522;SDS011;1272;53.332;9.860;2023-09-19T07:28:16;9.20;;;3.30;;
2522;SDS011;1272;53.332;9.860;2023-09-19T07:30:42;6.60;;;3.03;;
2522;SDS011;1272;53.332;9.860;2023-09-19T07:33:09;7.70;;;2.60;;
2522;SDS011;1272;53.332;9.860;2023-09-19T07:35:37;4.37;;;2.67;;
2522;SDS011;1272;53.332;9.860;2023-09-19T07:38:06;9.97;;;2.73;;
2522;SDS011;1272;53.332;9.860;2023-09-19T07:40:32;7.13;;;2.20;;
2522;SDS011;1272;53.332;9.860;2023-09-19T07:42:58;10.80;;;2.70;;
2522;SDS011;1272;53.332;9.860;2023-09-19T07:45:28;5.63;;;2.30;;
2522;SDS011;1272;53.332;9.860;2023-09-19T07:47:55;10.30;;;3.60;;
2522;SDS011;1272;53.332;9.860;2023-09-19T07:50:21;13.07;;;2.93;;
2522;SDS011;1272;53.332;9.860;2023-09-19T07:52:47;16.20;;;3.80;;
2522;SDS011;1272;53.332;9.860;2023-09-19T07:55:15;4.60;;;2.17;;
2522;SDS011;1272;53.332;9.860;2023-09-19T07:57:42;6.27;;;2.23;;
2522;SDS011;1272;53.332;9.860;2023-09-19T08:00:09;5.80;;;2.30;;
2522;SDS011;1272;53.332;9.860;2023-09-19T08:02:42;7.90;;;2.37;;
2522;SDS011;1272;53.332;9.860;2023-09-19T08:05:08;5.00;;;2.27;;
2522;SDS011;1272;53.332;9.860;2023-09-19T08:07:38;9.53;;;2.93;;
2522;SDS011;1272;53.332;9.860;2023-09-19T08:10:05;7.90;;;2.43;;
2522;SDS011;1272;53.332;9.860;2023-09-19T08:12:33;5.00;;;2.10;;
2522;SDS011;1272;53.332;9.860;2023-09-19T08:15:03;3.20;;;2.23;;
2522;SDS011;1272;53.332;9.860;2023-09-19T08:17:33;2.80;;;1.90;;
2522;SDS011;1272;53.332;9.860;2023-09-19T08:20:00;5.67;;;2.67;;
2522;SDS011;1272;53.332;9.860;2023-09-19T08:22:28;3.00;;;1.87;;
2522;SDS011;1272;53.332;9.860;2023-09-19T08:24:53;4.00;;;2.03;;
2522;SDS011;1272;53.332;9.860;2023-09-19T08:27:21;3.23;;;1.70;;
2522;SDS011;1272;53.332;9.860;2023-09-19T08:29:47;7.60;;;2.10;;
2522;SDS011;1272;53.332;9.860;2023-09-19T08:32:12;5.33;;;2.03;;
2522;SDS011;1272;53.332;9.860;2023-09-19T08:34:39;6.63;;;1.70;;
2522;SDS011;1272;53.332;9.860;2023-09-19T08:37:05;13.53;;;1.90;;
2522;SDS011;1272;53.332;9.860;2023-09-19T08:39:30;3.33;;;1.73;;
2522;SDS011;1272;53.332;9.860;2023-09-19T08:41:58;6.53;;;1.80;;
2522;SDS011;1272;53.332;9.860;2023-09-19T08:44:24;5.20;;;2.30;;
2522;SDS011;1272;53.332;9.860;2023-09-19T08:46:53;7.03;;;2.20;;
2522;SDS011;1272;53.332;9.860;2023-09-19T08:52:20;4.60;;;1.67;;
2522;SDS011;1272;53.332;9.860;2023-09-19T08:54:52;3.43;;;1.40;;
2522;SDS011;1272;53.332;9.860;2023-09-19T08:57:21;3.90;;;1.90;;
2522;SDS011;1272;53.332;9.860;2023-09-19T08:59:48;4.60;;;2.17;;
2522;SDS011;1272;53.332;9.860;2023-09-19T09:02:15;7.30;;;2.47;;
2522;SDS011;1272;53.332;9.860;2023-09-19T09:04:44;7.50;;;2.30;;
2522;SDS011;1272;53.332;9.860;2023-09-19T09:07:12;8.80;;;2.53;;
2522;SDS011;1272;53.332;9.860;2023-09-19T09:09:39;3.10;;;1.73;;
2522;SDS011;1272;53.332;9.860;2023-09-19T09:12:12;2.53;;;1.67;;
2522;SDS011;1272;53.332;9.860;2023-09-19T09:14:47;6.43;;;1.67;;
2522;SDS011;1272;53.332;9.860;2023-09-19T09:17:17;4.47;;;1.80;;
2522;SDS011;1272;53.332;9.860;2023-09-19T09:19:45;4.60;;;1.67;;
2522;SDS011;1272;53.332;9.860;2023-09-19T09:22:12;3.80;;;1.80;;
2522;SDS011;1272;53.332;9.860;2023-09-19T09:24:50;6.47;;;2.07;;
2522;SDS011;1272;53.332;9.860;2023-09-19T09:27:19;7.33;;;1.77;;
2522;SDS011;1272;53.332;9.860;2023-09-19T09:29:48;3.80;;;1.80;;
2522;SDS011;1272;53.332;9.860;2023-09-19T09:34:52;3.50;;;1.60;;
2522;SDS011;1272;53.332;9.860;2023-09-19T09:37:20;1.80;;;1.33;;
2522;SDS011;1272;53.332;9.860;2023-09-19T09:39:57;3.00;;;1.33;;
2522;SDS011;1272;53.332;9.860;2023-09-19T09:42:42;7.70;;;1.80;;
2522;SDS011;1272;53.332;9.860;2023-09-19T09:47:44;2.17;;;1.80;;
2522;SDS011;1272;53.332;9.860;2023-09-19T09:53:22;3.27;;;1.50;;
2522;SDS011;1272;53.332;9.860;2023-09-19T09:58:52;4.60;;;1.60;;
2522;SDS011;1272;53.332;9.860;2023-09-19T10:01:20;3.37;;;2.10;;
2522;SDS011;1272;53.332;9.860;2023-09-19T10:03:51;9.13;;;2.37;;
2522;SDS011;1272;53.332;9.860;2023-09-19T10:06:23;1.60;;;1.37;;
2522;SDS011;1272;53.332;9.860;2023-09-19T10:11:30;5.20;;;2.47;;
2522;SDS011;1272;53.332;9.860;2023-09-19T10:13:56;2.50;;;1.50;;
2522;SDS011;1272;53.332;9.860;2023-09-19T10:16:26;1.97;;;1.13;;
2522;SDS011;1272;53.332;9.860;2023-09-19T10:18:56;3.27;;;1.43;;
2522;SDS011;1272;53.332;9.860;2023-09-19T10:21:24;1.70;;;1.30;;
2522;SDS011;1272;53.332;9.860;2023-09-19T10:23:50;2.90;;;1.53;;
2522;SDS011;1272;53.332;9.860;2023-09-19T10:26:21;4.87;;;2.20;;
2522;SDS011;1272;53.332;9.860;2023-09-19T10:28:49;4.13;;;1.83;;
2522;SDS011;1272;53.332;9.860;2023-09-19T10:31:18;4.00;;;1.30;;
2522;SDS011;1272;53.332;9.860;2023-09-19T10:33:46;7.43;;;2.03;;
2522;SDS011;1272;53.332;9.860;2023-09-19T10:36:14;11.80;;;2.27;;
2522;SDS011;1272;53.332;9.860;2023-09-19T10:38:41;5.80;;;1.93;;
2522;SDS011;1272;53.332;9.860;2023-09-19T10:41:11;8.87;;;1.80;;
2522;SDS011;1272;53.332;9.860;2023-09-19T10:43:41;4.77;;;1.70;;
2522;SDS011;1272;53.332;9.860;2023-09-19T10:46:11;2.47;;;1.50;;
2522;SDS011;1272;53.332;9.860;2023-09-19T10:48:38;4.03;;;1.70;;
2522;SDS011;1272;53.332;9.860;2023-09-19T10:54:17;5.53;;;1.77;;
2522;SDS011;1272;53.332;9.860;2023-09-19T10:56:38;5.03;;;1.93;;
2522;SDS011;1272;53.332;9.860;2023-09-19T10:59:10;4.30;;;1.77;;
2522;SDS011;1272;53.332;9.860;2023-09-19T11:01:49;3.83;;;1.43;;
2522;SDS011;1272;53.332;9.860;2023-09-19T11:04:32;3.13;;;1.37;;
2522;SDS011;1272;53.332;9.860;2023-09-19T11:07:11;3.83;;;1.60;;
2522;SDS011;1272;53.332;9.860;2023-09-19T11:09:51;9.27;;;1.67;;
2522;SDS011;1272;53.332;9.860;2023-09-19T11:19:02;12.83;;;1.77;;
2522;SDS011;1272;53.332;9.860;2023-09-19T11:26:57;7.53;;;1.90;;
2522;SDS011;1272;53.332;9.860;2023-09-19T11:29:39;9.03;;;2.10;;
2522;SDS011;1272;53.332;9.860;2023-09-19T11:32:05;3.73;;;1.53;;
2522;SDS011;1272;53.332;9.860;2023-09-19T11:39:38;5.40;;;1.50;;
2522;SDS011;1272;53.332;9.860;2023-09-19T11:48:23;3.60;;;2.13;;
2522;SDS011;1272;53.332;9.860;2023-09-19T11:50:52;6.37;;;2.10;;
2522;SDS011;1272;53.332;9.860;2023-09-19T11:53:18;7.07;;;1.97;;
2522;SDS011;1272;53.332;9.860;2023-09-19T11:55:45;1.60;;;1.50;;
2522;SDS011;1272;53.332;9.860;2023-09-19T11:58:17;2.30;;;1.37;;
2522;SDS011;1272;53.332;9.860;2023-09-19T12:00:45;3.30;;;2.20;;
2522;SDS011;1272;53.332;9.860;2023-09-19T12:03:11;4.03;;;2.00;;
2522;SDS011;1272;53.332;9.860;2023-09-19T12:05:39;5.50;;;1.97;;
2522;SDS011;1272;53.332;9.860;2023-09-19T12:08:05;2.30;;;1.30;;
2522;SDS011;1272;53.332;9.860;2023-09-19T12:10:50;5.27;;;1.90;;
2522;SDS011;1272;53.332;9.860;2023-09-19T12:13:19;3.97;;;1.40;;
2522;SDS011;1272;53.332;9.860;2023-09-19T12:15:46;4.27;;;2.20;;
2522;SDS011;1272;53.332;9.860;2023-09-19T12:18:27;3.40;;;1.90;;
2522;SDS011;1272;53.332;9.860;2023-09-19T12:20:53;6.83;;;1.70;;
2522;SDS011;1272;53.332;9.860;2023-09-19T12:23:19;3.70;;;2.20;;
2522;SDS011;1272;53.332;9.860;2023-09-19T12:25:46;5.40;;;1.63;;
2522;SDS011;1272;53.332;9.860;2023-09-19T12:28:13;8.30;;;2.40;;
2522;SDS011;1272;53.332;9.860;2023-09-19T12:30:41;5.10;;;1.90;;
2522;SDS011;1272;53.332;9.860;2023-09-19T12:33:17;2.47;;;1.50;;
2522;SDS011;1272;53.332;9.860;2023-09-19T12:35:51;5.63;;;2.17;;
2522;SDS011;1272;53.332;9.860;2023-09-19T12:38:27;3.73;;;1.67;;
2522;SDS011;1272;53.332;9.860;2023-09-19T12:40:57;3.60;;;1.43;;
2522;SDS011;1272;53.332;9.860;2023-09-19T12:43:26;2.80;;;1.50;;
2522;SDS011;1272;53.332;9.860;2023-09-19T12:45:53;6.13;;;2.07;;
2522;SDS011;1272;53.332;9.860;2023-09-19T12:48:20;4.63;;;2.03;;
2522;SDS011;1272;53.332;9.860;2023-09-19T12:53:32;3.00;;;1.53;;
2522;SDS011;1272;53.332;9.860;2023-09-19T12:56:01;5.40;;;1.50;;
2522;SDS011;1272;53.332;9.860;2023-09-19T12:58:30;2.43;;;1.57;;
2522;SDS011;1272;53.332;9.860;2023-09-19T13:00:57;1.93;;;1.60;;
2522;SDS011;1272;53.332;9.860;2023-09-19T13:05:56;2.90;;;1.70;;
2522;SDS011;1272;53.332;9.860;2023-09-19T13:08:31;4.93;;;1.73;;
2522;SDS011;1272;53.332;9.860;2023-09-19T13:11:13;2.90;;;1.80;;
2522;SDS011;1272;53.332;9.860;2023-09-19T13:13:46;5.03;;;2.13;;
2522;SDS011;1272;53.332;9.860;2023-09-19T13:16:15;6.20;;;2.50;;
2522;SDS011;1272;53.332;9.860;2023-09-19T13:18:51;3.97;;;2.10;;
2522;SDS011;1272;53.332;9.860;2023-09-19T13:21:34;4.10;;;2.00;;
2522;SDS011;1272;53.332;9.860;2023-09-19T13:24:17;4.27;;;2.00;;
2522;SDS011;1272;53.332;9.860;2023-09-19T13:26:44;2.07;;;1.60;;
2522;SDS011;1272;53.332;9.860;2023-09-19T13:29:10;5.13;;;1.90;;
2522;SDS011;1272;53.332;9.860;2023-09-19T13:31:36;4.07;;;1.67;;
2522;SDS011;1272;53.332;9.860;2023-09-19T13:34:06;3.03;;;2.23;;
2522;SDS011;1272;53.332;9.860;2023-09-19T13:36:32;3.83;;;1.70;;
2522;SDS011;1272;53.332;9.860;2023-09-19T13:38:58;3.50;;;1.87;;
2522;SDS011;1272;53.332;9.860;2023-09-19T13:41:25;6.10;;;1.70;;
2522;SDS011;1272;53.332;9.860;2023-09-19T13:43:51;3.00;;;2.10;;
2522;SDS011;1272;53.332;9.860;2023-09-19T13:46:17;5.60;;;2.30;;
2522;SDS011;1272;53.332;9.860;2023-09-19T13:48:50;3.00;;;1.83;;
2522;SDS011;1272;53.332;9.860;2023-09-19T13:51:19;2.77;;;1.80;;
2522;SDS011;1272;53.332;9.860;2023-09-19T13:53:48;1.97;;;1.43;;
2522;SDS011;1272;53.332;9.860;2023-09-19T13:56:15;3.73;;;2.10;;
2522;SDS011;1272;53.332;9.860;2023-09-19T13:58:41;7.03;;;2.10;;
2522;SDS011;1272;53.332;9.860;2023-09-19T14:01:07;2.33;;;1.90;;
2522;SDS011;1272;53.332;9.860;2023-09-19T14:03:37;8.77;;;2.10;;
2522;SDS011;1272;53.332;9.860;2023-09-19T14:06:04;6.33;;;1.90;;
2522;SDS011;1272;53.332;9.860;2023-09-19T14:08:30;5.57;;;1.60;;
2522;SDS011;1272;53.332;9.860;2023-09-19T14:10:55;4.40;;;2.23;;
2522;SDS011;1272;53.332;9.860;2023-09-19T14:13:21;2.53;;;1.87;;
2522;SDS011;1272;53.332;9.860;2023-09-19T14:15:47;6.27;;;1.97;;
2522;SDS011;1272;53.332;9.860;2023-09-19T14:18:13;5.67;;;2.03;;
2522;SDS011;1272;53.332;9.860;2023-09-19T14:20:38;7.03;;;1.90;;
2522;SDS011;1272;53.332;9.860;2023-09-19T14:23:06;3.00;;;1.70;;
2522;SDS011;1272;53.332;9.860;2023-09-19T14:25:33;4.60;;;2.00;;
2522;SDS011;1272;53.332;9.860;2023-09-19T14:28:00;4.10;;;1.83;;
2522;SDS011;1272;53.332;9.860;2023-09-19T14:30:25;6.00;;;1.80;;
2522;SDS011;1272;53.332;9.860;2023-09-19T14:32:52;4.43;;;2.27;;
2522;SDS011;1272;53.332;9.860;2023-09-19T14:35:18;3.03;;;2.00;;
2522;SDS011;1272;53.332;9.860;2023-09-19T14:37:44;4.27;;;1.87;;
2522;SDS011;1272;53.332;9.860;2023-09-19T14:40:10;5.00;;;1.97;;
2522;SDS011;1272;53.332;9.860;2023-09-19T14:42:38;7.70;;;2.37;;
2522;SDS011;1272;53.332;9.860;2023-09-19T14:45:05;4.13;;;2.20;;
2522;SDS011;1272;53.332;9.860;2023-09-19T14:47:31;4.30;;;1.77;;
2522;SDS011;1272;53.332;9.860;2023-09-19T14:49:59;2.00;;;1.80;;
2522;SDS011;1272;53.332;9.860;2023-09-19T14:52:34;6.80;;;1.70;;
2522;SDS011;1272;53.332;9.860;2023-09-19T14:55:01;4.73;;;1.90;;
2522;SDS011;1272;53.332;9.860;2023-09-19T14:57:27;2.03;;;1.87;;
2522;SDS011;1272;53.332;9.860;2023-09-19T14:59:53;2.30;;;2.10;;
2522;SDS011;1272;53.332;9.860;2023-09-19T15:02:19;3.33;;;1.60;;
2522;SDS011;1272;53.332;9.860;2023-09-19T15:04:45;3.83;;;2.37;;
2522;SDS011;1272;53.332;9.860;2023-09-19T15:07:15;6.13;;;2.30;;
2522;SDS011;1272;53.332;9.860;2023-09-19T15:09:41;4.10;;;2.00;;
2522;SDS011;1272;53.332;9.860;2023-09-19T15:12:07;5.53;;;2.53;;
2522;SDS011;1272;53.332;9.860;2023-09-19T15:14:33;3.30;;;2.33;;
2522;SDS011;1272;53.332;9.860;2023-09-19T15:16:59;2.07;;;1.80;;
2522;SDS011;1272;53.332;9.860;2023-09-19T15:19:24;5.93;;;2.13;;
2522;SDS011;1272;53.332;9.860;2023-09-19T15:21:50;2.60;;;1.90;;
2522;SDS011;1272;53.332;9.860;2023-09-19T15:24:16;7.30;;;2.97;;
2522;SDS011;1272;53.332;9.860;2023-09-19T15:26:42;7.00;;;2.07;;
2522;SDS011;1272;53.332;9.860;2023-09-19T15:29:09;3.53;;;2.33;;
2522;SDS011;1272;53.332;9.860;2023-09-19T15:31:35;7.70;;;2.57;;
2522;SDS011;1272;53.332;9.860;2023-09-19T15:34:02;7.63;;;2.70;;
2522;SDS011;1272;53.332;9.860;2023-09-19T15:36:28;6.10;;;2.37;;
2522;SDS011;1272;53.332;9.860;2023-09-19T15:39:04;2.17;;;1.93;;
2522;SDS011;1272;53.332;9.860;2023-09-19T15:41:33;4.13;;;2.33;;
2522;SDS011;1272;53.332;9.860;2023-09-19T15:44:13;4.27;;;2.70;;
2522;SDS011;1272;53.332;9.860;2023-09-19T15:46:40;6.90;;;2.93;;
2522;SDS011;1272;53.332;9.860;2023-09-19T15:49:06;5.67;;;1.90;;
2522;SDS011;1272;53.332;9.860;2023-09-19T15:51:33;4.60;;;2.80;;
2522;SDS011;1272;53.332;9.860;2023-09-19T15:54:01;5.13;;;2.00;;
2522;SDS011;1272;53.332;9.860;2023-09-19T15:56:32;2.13;;;1.90;;
2522;SDS011;1272;53.332;9.860;2023-09-19T15:59:00;4.47;;;2.03;;
2522;SDS011;1272;53.332;9.860;2023-09-19T16:01:25;3.17;;;1.80;;
2522;SDS011;1272;53.332;9.860;2023-09-19T16:03:52;9.00;;;1.90;;
2522;SDS011;1272;53.332;9.860;2023-09-19T16:06:21;3.33;;;1.63;;
2522;SDS011;1272;53.332;9.860;2023-09-19T16:08:49;3.97;;;2.20;;
2522;SDS011;1272;53.332;9.860;2023-09-19T16:11:17;6.03;;;2.73;;
2522;SDS011;1272;53.332;9.860;2023-09-19T16:13:46;3.03;;;2.10;;
2522;SDS011;1272;53.332;9.860;2023-09-19T16:16:13;7.50;;;2.27;;
2522;SDS011;1272;53.332;9.860;2023-09-19T16:18:50;8.90;;;2.27;;
2522;SDS011;1272;53.332;9.860;2023-09-19T16:21:16;6.23;;;1.93;;
2522;SDS011;1272;53.332;9.860;2023-09-19T16:23:45;2.63;;;2.00;;
2522;SDS011;1272;53.332;9.860;2023-09-19T16:26:11;4.10;;;1.70;;
2522;SDS011;1272;53.332;9.860;2023-09-19T16:28:38;4.97;;;2.20;;
2522;SDS011;1272;53.332;9.860;2023-09-19T16:31:05;3.73;;;1.80;;